sensor_id;sensor_type;location;lat;lon;timestamp;pressure;altitude;pressure_sealevel;temperature;humidity
43312;BME280;30041;48.300;16.352;2023-11-19T00:02:10;100295.34;;;22.50;nan
43312;BME280;30041;48.300;16.352;2023-11-19T00:04:38;100299.34;;;22.47;nan
43312;BME280;30041;48.300;16.352;2023-11-19T00:07:04;100300.16;;;22.48;nan
43312;BME280;30041;48.300;16.352;2023-11-19T00:09:29;100296.03;;;22.45;nan
43312;BME280;30041;48.300;16.352;2023-11-19T00:11:54;100289.34;;;22.48;nan
43312;BME280;30041;48.300;16.352;2023-11-19T00:14:20;100286.06;;;22.46;nan
43312;BME280;30041;48.300;16.352;2023-11-19T00:16:45;100282.53;;;22.45;nan
43312;BME280;30041;48.300;16.352;2023-11-19T00:19:10;100276.53;;;22.43;nan
43312;BME280;30041;48.300;16.352;2023-11-19T00:21:36;100274.66;;;22.44;nan
43312;BME280;30041;48.300;16.352;2023-11-19T00:24:01;100278.19;;;22.44;nan
43312;BME280;30041;48.300;16.352;2023-11-19T00:26:27;100280.91;;;22.44;nan
43312;BME280;30041;48.300;16.352;2023-11-19T00:28:52;100276.53;;;22.43;nan
43312;BME280;30041;48.300;16.352;2023-11-19T00:31:18;100266.56;;;22.44;nan
43312;BME280;30041;48.300;16.352;2023-11-19T00:33:43;100276.53;;;22.43;nan
43312;BME280;30041;48.300;16.352;2023-11-19T00:36:09;100278.44;;;22.43;nan
43312;BME280;30041;48.300;16.352;2023-11-19T00:38:34;100266.81;;;22.42;nan
43312;BME280;30041;48.300;16.352;2023-11-19T00:40:59;100260.59;;;22.42;nan
43312;BME280;30041;48.300;16.352;2023-11-19T00:43:25;100255.41;;;22.40;nan
43312;BME280;30041;48.300;16.352;2023-11-19T00:45:50;100236.50;;;22.40;nan
43312;BME280;30041;48.300;16.352;2023-11-19T00:48:16;100249.19;;;22.40;nan
43312;BME280;30041;48.300;16.352;2023-11-19T00:50:41;100254.59;;;22.40;nan
43312;BME280;30041;48.300;16.352;2023-11-19T00:53:07;100258.31;;;22.38;nan
43312;BME280;30041;48.300;16.352;2023-11-19T00:55:32;100263.94;;;22.37;nan
43312;BME280;30041;48.300;16.352;2023-11-19T00:57:58;100254.22;;;22.36;nan
43312;BME280;30041;48.300;16.352;2023-11-19T01:00:23;100254.22;;;22.36;nan
43312;BME280;30041;48.300;16.352;2023-11-19T01:02:48;100246.09;;;22.36;nan
43312;BME280;30041;48.300;16.352;2023-11-19T01:05:14;100238.59;;;22.38;nan
43312;BME280;30041;48.300;16.352;2023-11-19T01:07:39;100235.31;;;22.36;nan
43312;BME280;30041;48.300;16.352;2023-11-19T01:10:05;100248.00;;;22.35;nan
43312;BME280;30041;48.300;16.352;2023-11-19T01:12:30;100244.47;;;22.35;nan
43312;BME280;30041;48.300;16.352;2023-11-19T01:14:56;100238.00;;;22.36;nan
43312;BME280;30041;48.300;16.352;2023-11-19T01:17:21;100221.81;;;22.36;nan
43312;BME280;30041;48.300;16.352;2023-11-19T01:19:46;100222.03;;;22.34;nan
43312;BME280;30041;48.300;16.352;2023-11-19T01:22:12;100216.03;;;22.32;nan
43312;BME280;30041;48.300;16.352;2023-11-19T01:24:37;100209.38;;;22.35;nan
43312;BME280;30041;48.300;16.352;2023-11-19T01:27:03;100203.38;;;22.33;nan
43312;BME280;30041;48.300;16.352;2023-11-19T01:29:28;100211.47;;;22.33;nan
43312;BME280;30041;48.300;16.352;2023-11-19T01:31:53;100210.41;;;22.34;nan
43312;BME280;30041;48.300;16.352;2023-11-19T01:34:19;100205.00;;;22.34;nan
43312;BME280;30041;48.300;16.352;2023-11-19T01:36:44;100200.88;;;22.31;nan
43312;BME280;30041;48.300;16.352;2023-11-19T01:39:11;100203.38;;;22.33;nan
43312;BME280;30041;48.300;16.352;2023-11-19T01:41:37;100201.47;;;22.33;nan
43312;BME280;30041;48.300;16.352;2023-11-19T01:44:03;100200.88;;;22.31;nan
43312;BME280;30041;48.300;16.352;2023-11-19T01:46:29;100194.88;;;22.29;nan
43312;BME280;30041;48.300;16.352;2023-11-19T01:48:55;100197.59;;;22.29;nan
43312;BME280;30041;48.300;16.352;2023-11-19T01:51:21;100187.00;;;22.28;nan
43312;BME280;30041;48.300;16.352;2023-11-19T01:53:47;100180.56;;;22.29;nan
43312;BME280;30041;48.300;16.352;2023-11-19T01:56:15;100176.22;;;22.28;nan
43312;BME280;30041;48.300;16.352;2023-11-19T01:58:41;100177.06;;;22.28;nan
43312;BME280;30041;48.300;16.352;2023-11-19T02:01:07;100178.09;;;22.27;nan
43312;BME280;30041;48.300;16.352;2023-11-19T02:03:33;100178.91;;;22.28;nan
43312;BME280;30041;48.300;16.352;2023-11-19T02:06:02;100176.22;;;22.28;nan
43312;BME280;30041;48.300;16.352;2023-11-19T02:08:27;100165.06;;;22.24;nan
43312;BME280;30041;48.300;16.352;2023-11-19T02:10:54;100154.59;;;22.28;nan
43312;BME280;30041;48.300;16.352;2023-11-19T02:13:19;100155.69;;;22.27;nan
43312;BME280;30041;48.300;16.352;2023-11-19T02:15:45;100141.34;;;22.26;nan
43312;BME280;30041;48.300;16.352;2023-11-19T02:18:29;100133.47;;;22.25;nan
43312;BME280;30041;48.300;16.352;2023-11-19T02:20:55;100126.41;;;22.24;nan
43312;BME280;30041;48.300;16.352;2023-11-19T02:23:21;100118.31;;;22.24;nan
43312;BME280;30041;48.300;16.352;2023-11-19T02:28:24;100106.94;;;22.22;nan
43312;BME280;30041;48.300;16.352;2023-11-19T02:30:52;100104.25;;;22.22;nan
43312;BME280;30041;48.300;16.352;2023-11-19T02:33:18;100098.59;;;22.23;nan
43312;BME280;30041;48.300;16.352;2023-11-19T02:35:43;100098.59;;;22.23;nan
43312;BME280;30041;48.300;16.352;2023-11-19T02:38:08;100102.38;;;22.22;nan
43312;BME280;30041;48.300;16.352;2023-11-19T02:40:34;100100.69;;;22.21;nan
43312;BME280;30041;48.300;16.352;2023-11-19T02:42:59;100091.75;;;22.21;nan
43312;BME280;30041;48.300;16.352;2023-11-19T02:45:26;100094.47;;;22.21;nan
43312;BME280;30041;48.300;16.352;2023-11-19T02:47:52;100091.16;;;22.18;nan
43312;BME280;30041;48.300;16.352;2023-11-19T02:50:20;100089.88;;;22.21;nan
43312;BME280;30041;48.300;16.352;2023-11-19T02:52:46;100084.72;;;22.20;nan
43312;BME280;30041;48.300;16.352;2023-11-19T02:55:12;100083.06;;;22.18;nan
43312;BME280;30041;48.300;16.352;2023-11-19T02:57:37;100075.78;;;22.19;nan
43312;BME280;30041;48.300;16.352;2023-11-19T03:00:04;100081.44;;;22.17;nan
43312;BME280;30041;48.300;16.352;2023-11-19T03:02:29;100079.56;;;22.18;nan
43312;BME280;30041;48.300;16.352;2023-11-19T03:04:54;100078.72;;;22.17;nan
43312;BME280;30041;48.300;16.352;2023-11-19T03:07:20;100055.47;;;22.16;nan
43312;BME280;30041;48.300;16.352;2023-11-19T03:09:45;100058.78;;;22.18;nan
43312;BME280;30041;48.300;16.352;2023-11-19T03:12:11;100054.19;;;22.19;nan
43312;BME280;30041;48.300;16.352;2023-11-19T03:14:36;100052.56;;;22.18;nan
43312;BME280;30041;48.300;16.352;2023-11-19T03:17:02;100032.84;;;22.17;nan
43312;BME280;30041;48.300;16.352;2023-11-19T03:19:27;100026.03;;;22.15;nan
43312;BME280;30041;48.300;16.352;2023-11-19T03:21:52;100018.53;;;22.17;nan
43312;BME280;30041;48.300;16.352;2023-11-19T03:24:18;100017.94;;;22.15;nan
43312;BME280;30041;48.300;16.352;2023-11-19T03:26:48;100020.63;;;22.15;nan
43312;BME280;30041;48.300;16.352;2023-11-19T03:29:14;100023.34;;;22.15;nan
43312;BME280;30041;48.300;16.352;2023-11-19T03:31:42;100027.06;;;22.14;nan
43312;BME280;30041;48.300;16.352;2023-11-19T03:34:07;100025.44;;;22.13;nan
43312;BME280;30041;48.300;16.352;2023-11-19T03:36:33;100024.38;;;22.14;nan
43312;BME280;30041;48.300;16.352;2023-11-19T03:38:58;100027.06;;;22.14;nan
43312;BME280;30041;48.300;16.352;2023-11-19T03:41:23;100014.88;;;22.11;nan
43312;BME280;30041;48.300;16.352;2023-11-19T03:43:49;100024.59;;;22.12;nan
43312;BME280;30041;48.300;16.352;2023-11-19T03:46:17;100013.25;;;22.10;nan
43312;BME280;30041;48.300;16.352;2023-11-19T03:48:43;100018.63;;;22.10;nan
43312;BME280;30041;48.300;16.352;2023-11-19T03:51:08;100004.28;;;22.10;nan
43312;BME280;30041;48.300;16.352;2023-11-19T03:53:35;100003.69;;;22.08;nan
43312;BME280;30041;48.300;16.352;2023-11-19T03:56:00;99991.06;;;22.08;nan
43312;BME280;30041;48.300;16.352;2023-11-19T03:58:25;99981.06;;;22.09;nan
43312;BME280;30041;48.300;16.352;2023-11-19T04:00:51;99979.19;;;22.09;nan
43312;BME280;30041;48.300;16.352;2023-11-19T04:03:16;99972.97;;;22.09;nan
43312;BME280;30041;48.300;16.352;2023-11-19T04:05:41;99972.97;;;22.09;nan
43312;BME280;30041;48.300;16.352;2023-11-19T04:08:09;99965.09;;;22.07;nan
43312;BME280;30041;48.300;16.352;2023-11-19T04:10:34;99967.56;;;22.09;nan
43312;BME280;30041;48.300;16.352;2023-11-19T04:13:00;99957.81;;;22.08;nan
43312;BME280;30041;48.300;16.352;2023-11-19T04:15:25;99945.38;;;22.07;nan
43312;BME280;30041;48.300;16.352;2023-11-19T04:17:50;99936.47;;;22.06;nan
43312;BME280;30041;48.300;16.352;2023-11-19T04:20:16;99943.72;;;22.06;nan
43312;BME280;30041;48.300;16.352;2023-11-19T04:22:41;99941.28;;;22.04;nan
43312;BME280;30041;48.300;16.352;2023-11-19T04:25:07;99944.81;;;22.05;nan
43312;BME280;30041;48.300;16.352;2023-11-19T04:27:33;99951.28;;;22.04;nan
43312;BME280;30041;48.300;16.352;2023-11-19T04:29:58;99953.97;;;22.04;nan
43312;BME280;30041;48.300;16.352;2023-11-19T04:32:24;99942.31;;;22.03;nan
43312;BME280;30041;48.300;16.352;2023-11-19T04:34:49;99935.53;;;22.01;nan
43312;BME280;30041;48.300;16.352;2023-11-19T04:37:14;99932.00;;;22.00;nan
43312;BME280;30041;48.300;16.352;2023-11-19T04:39:40;99930.13;;;22.01;nan
43312;BME280;30041;48.300;16.352;2023-11-19T04:42:05;99933.63;;;22.01;nan
43312;BME280;30041;48.300;16.352;2023-11-19T04:44:31;99930.34;;;21.99;nan
43312;BME280;30041;48.300;16.352;2023-11-19T04:46:56;99933.03;;;21.99;nan
43312;BME280;30041;48.300;16.352;2023-11-19T04:49:22;99925.22;;;21.97;nan
43312;BME280;30041;48.300;16.352;2023-11-19T04:51:47;99922.50;;;21.97;nan
43312;BME280;30041;48.300;16.352;2023-11-19T04:54:13;99911.72;;;21.97;nan
43312;BME280;30041;48.300;16.352;2023-11-19T04:56:38;99908.19;;;21.97;nan
43312;BME280;30041;48.300;16.352;2023-11-19T04:59:04;99909.25;;;21.96;nan
43312;BME280;30041;48.300;16.352;2023-11-19T05:01:29;99887.88;;;21.94;nan
43312;BME280;30041;48.300;16.352;2023-11-19T05:03:56;99885.19;;;21.94;nan
43312;BME280;30041;48.300;16.352;2023-11-19T05:06:22;99882.47;;;21.94;nan
43312;BME280;30041;48.300;16.352;2023-11-19T05:08:50;99886.03;;;21.95;nan
43312;BME280;30041;48.300;16.352;2023-11-19T05:11:15;99880.84;;;21.93;nan
43312;BME280;30041;48.300;16.352;2023-11-19T05:13:40;99887.06;;;21.94;nan
43312;BME280;30041;48.300;16.352;2023-11-19T05:16:06;99877.34;;;21.93;nan
43312;BME280;30041;48.300;16.352;2023-11-19T05:18:32;99874.38;;;21.94;nan
43312;BME280;30041;48.300;16.352;2023-11-19T05:20:57;99870.66;;;21.95;nan
43312;BME280;30041;48.300;16.352;2023-11-19T05:23:22;99862.56;;;21.95;nan
43312;BME280;30041;48.300;16.352;2023-11-19T05:25:48;99866.88;;;21.96;nan
43312;BME280;30041;48.300;16.352;2023-11-19T05:28:13;99867.13;;;21.95;nan
43312;BME280;30041;48.300;16.352;2023-11-19T05:30:38;99865.47;;;21.94;nan
43312;BME280;30041;48.300;16.352;2023-11-19T05:33:04;99861.47;;;21.96;nan
43312;BME280;30041;48.300;16.352;2023-11-19T05:35:29;99856.56;;;21.93;nan
43312;BME280;30041;48.300;16.352;2023-11-19T05:37:54;99846.59;;;21.94;nan
43312;BME280;30041;48.300;16.352;2023-11-19T05:40:20;99837.69;;;21.93;nan
43312;BME280;30041;48.300;16.352;2023-11-19T05:42:45;99841.19;;;21.94;nan
43312;BME280;30041;48.300;16.352;2023-11-19T05:45:11;99832.50;;;21.92;nan
43312;BME280;30041;48.300;16.352;2023-11-19T05:47:37;99830.88;;;21.91;nan
43312;BME280;30041;48.300;16.352;2023-11-19T05:50:02;99823.59;;;21.91;nan
43312;BME280;30041;48.300;16.352;2023-11-19T05:52:28;99819.28;;;21.90;nan
43312;BME280;30041;48.300;16.352;2023-11-19T05:54:53;99819.28;;;21.90;nan
43312;BME280;30041;48.300;16.352;2023-11-19T05:57:19;99814.69;;;21.91;nan
43312;BME280;30041;48.300;16.352;2023-11-19T05:59:45;99820.09;;;21.91;nan
43312;BME280;30041;48.300;16.352;2023-11-19T06:02:10;99815.50;;;21.91;nan
43312;BME280;30041;48.300;16.352;2023-11-19T06:04:36;99820.19;;;21.96;nan
43312;BME280;30041;48.300;16.352;2023-11-19T06:07:01;99826.16;;;21.98;nan
43312;BME280;30041;48.300;16.352;2023-11-19T06:09:26;99832.16;;;22.00;nan
43312;BME280;30041;48.300;16.352;2023-11-19T06:11:52;99821.94;;;22.02;nan
43312;BME280;30041;48.300;16.352;2023-11-19T06:14:17;99835.66;;;22.01;nan
43312;BME280;30041;48.300;16.352;2023-11-19T06:16:43;99841.06;;;22.01;nan
43312;BME280;30041;48.300;16.352;2023-11-19T06:19:08;99830.50;;;21.99;nan
43312;BME280;30041;48.300;16.352;2023-11-19T06:21:34;99829.47;;;22.00;nan
43312;BME280;30041;48.300;16.352;2023-11-19T06:23:59;99824.06;;;22.00;nan
43312;BME280;30041;48.300;16.352;2023-11-19T06:26:24;99828.38;;;22.01;nan
43312;BME280;30041;48.300;16.352;2023-11-19T06:28:50;99827.56;;;22.01;nan
43312;BME280;30041;48.300;16.352;2023-11-19T06:31:15;99828.38;;;22.01;nan
43312;BME280;30041;48.300;16.352;2023-11-19T06:33:41;99824.88;;;22.01;nan
43312;BME280;30041;48.300;16.352;2023-11-19T06:36:06;99824.06;;;22.00;nan
43312;BME280;30041;48.300;16.352;2023-11-19T06:38:32;99818.66;;;22.00;nan
43312;BME280;30041;48.300;16.352;2023-11-19T06:40:57;99824.88;;;22.01;nan
43312;BME280;30041;48.300;16.352;2023-11-19T06:43:23;99820.53;;;22.00;nan
43312;BME280;30041;48.300;16.352;2023-11-19T06:45:48;99819.47;;;22.01;nan
43312;BME280;30041;48.300;16.352;2023-11-19T06:48:13;99809.75;;;22.00;nan
43312;BME280;30041;48.300;16.352;2023-11-19T06:50:39;99804.09;;;22.01;nan
43312;BME280;30041;48.300;16.352;2023-11-19T06:53:04;99804.09;;;22.01;nan
43312;BME280;30041;48.300;16.352;2023-11-19T06:55:30;99788.97;;;22.00;nan
43312;BME280;30041;48.300;16.352;2023-11-19T06:57:55;99787.91;;;22.01;nan
43312;BME280;30041;48.300;16.352;2023-11-19T07:00:23;99784.16;;;22.02;nan
43312;BME280;30041;48.300;16.352;2023-11-19T07:02:48;99793.06;;;22.03;nan
43312;BME280;30041;48.300;16.352;2023-11-19T07:05:14;99803.06;;;22.02;nan
43312;BME280;30041;48.300;16.352;2023-11-19T07:07:39;99789.78;;;22.01;nan
43312;BME280;30041;48.300;16.352;2023-11-19T07:10:05;99774.19;;;22.03;nan
43312;BME280;30041;48.300;16.352;2023-11-19T07:12:30;99771.47;;;22.03;nan
43312;BME280;30041;48.300;16.352;2023-11-19T07:14:56;99773.59;;;22.01;nan
43312;BME280;30041;48.300;16.352;2023-11-19T07:17:21;99763.63;;;22.01;nan
43312;BME280;30041;48.300;16.352;2023-11-19T07:19:49;99747.41;;;22.01;nan
43312;BME280;30041;48.300;16.352;2023-11-19T07:22:14;99751.78;;;22.02;nan
43312;BME280;30041;48.300;16.352;2023-11-19T07:24:39;99748.00;;;22.03;nan
43312;BME280;30041;48.300;16.352;2023-11-19T07:27:07;99749.09;;;22.02;nan
43312;BME280;30041;48.300;16.352;2023-11-19T07:29:33;99741.78;;;22.03;nan
43312;BME280;30041;48.300;16.352;2023-11-19T07:31:58;99735.34;;;22.04;nan
43312;BME280;30041;48.300;16.352;2023-11-19T07:34:24;99743.69;;;22.02;nan
43312;BME280;30041;48.300;16.352;2023-11-19T07:36:50;99746.38;;;22.02;nan
43312;BME280;30041;48.300;16.352;2023-11-19T07:39:15;99757.19;;;22.02;nan
43312;BME280;30041;48.300;16.352;2023-11-19T07:41:40;99755.28;;;22.03;nan
43312;BME280;30041;48.300;16.352;2023-11-19T07:44:06;99742.63;;;22.03;nan
43312;BME280;30041;48.300;16.352;2023-11-19T07:46:31;99747.19;;;22.03;nan
43312;BME280;30041;48.300;16.352;2023-11-19T07:48:57;99739.91;;;22.03;nan
43312;BME280;30041;48.300;16.352;2023-11-19T07:51:22;99731.81;;;22.03;nan
43312;BME280;30041;48.300;16.352;2023-11-19T07:53:47;99732.88;;;22.02;nan
43312;BME280;30041;48.300;16.352;2023-11-19T07:56:13;99729.59;;;22.00;nan
43312;BME280;30041;48.300;16.352;2023-11-19T07:58:38;99723.13;;;22.01;nan
43312;BME280;30041;48.300;16.352;2023-11-19T08:01:04;99726.09;;;22.00;nan
43312;BME280;30041;48.300;16.352;2023-11-19T08:03:30;99728.53;;;22.01;nan
43312;BME280;30041;48.300;16.352;2023-11-19T08:05:56;99736.03;;;21.99;nan
43312;BME280;30041;48.300;16.352;2023-11-19T08:08:21;99726.09;;;22.00;nan
43312;BME280;30041;48.300;16.352;2023-11-19T08:10:46;99729.38;;;22.02;nan
43312;BME280;30041;48.300;16.352;2023-11-19T08:13:12;99727.72;;;22.01;nan
43312;BME280;30041;48.300;16.352;2023-11-19T08:15:37;99737.69;;;22.00;nan
43312;BME280;30041;48.300;16.352;2023-11-19T08:18:03;99725.84;;;22.01;nan
43312;BME280;30041;48.300;16.352;2023-11-19T08:20:28;99728.78;;;22.00;nan
43312;BME280;30041;48.300;16.352;2023-11-19T08:22:53;99716.94;;;22.01;nan
43312;BME280;30041;48.300;16.352;2023-11-19T08:25:19;99718.00;;;22.00;nan
43312;BME280;30041;48.300;16.352;2023-11-19T08:27:44;99722.56;;;21.99;nan
43312;BME280;30041;48.300;16.352;2023-11-19T08:30:10;99712.00;;;21.97;nan
43312;BME280;30041;48.300;16.352;2023-11-19T08:32:36;99720.94;;;21.98;nan
43312;BME280;30041;48.300;16.352;2023-11-19T08:35:02;99716.59;;;21.97;nan
43312;BME280;30041;48.300;16.352;2023-11-19T08:37:27;99719.03;;;21.98;nan
43312;BME280;30041;48.300;16.352;2023-11-19T08:39:52;99712.84;;;21.98;nan
43312;BME280;30041;48.300;16.352;2023-11-19T08:42:18;99714.47;;;21.99;nan
43312;BME280;30041;48.300;16.352;2023-11-19T08:44:43;99713.41;;;22.00;nan
43312;BME280;30041;48.300;16.352;2023-11-19T08:47:12;99702.03;;;21.98;nan
43312;BME280;30041;48.300;16.352;2023-11-19T08:49:37;99708.03;;;22.00;nan
43312;BME280;30041;48.300;16.352;2023-11-19T08:52:03;99711.53;;;22.01;nan
43312;BME280;30041;48.300;16.352;2023-11-19T08:54:28;99715.31;;;22.00;nan
43312;BME280;30041;48.300;16.352;2023-11-19T08:56:54;99716.94;;;22.01;nan
43312;BME280;30041;48.300;16.352;2023-11-19T08:59:19;99726.69;;;22.02;nan
43312;BME280;30041;48.300;16.352;2023-11-19T09:01:45;99733.69;;;22.03;nan
43312;BME280;30041;48.300;16.352;2023-11-19T09:04:10;99729.38;;;22.02;nan
43312;BME280;30041;48.300;16.352;2023-11-19T09:06:36;99729.59;;;22.00;nan
43312;BME280;30041;48.300;16.352;2023-11-19T09:09:01;99715.31;;;22.00;nan
43312;BME280;30041;48.300;16.352;2023-11-19T09:11:27;99706.34;;;21.99;nan
43312;BME280;30041;48.300;16.352;2023-11-19T09:13:52;99693.94;;;21.98;nan
43312;BME280;30041;48.300;16.352;2023-11-19T09:16:18;99693.72;;;22.00;nan
43312;BME280;30041;48.300;16.352;2023-11-19T09:18:43;99682.91;;;22.00;nan
43312;BME280;30041;48.300;16.352;2023-11-19T09:21:13;99685.84;;;21.98;nan
43312;BME280;30041;48.300;16.352;2023-11-19T09:23:38;99673.75;;;22.01;nan
43312;BME280;30041;48.300;16.352;2023-11-19T09:26:08;99671.28;;;21.99;nan
43312;BME280;30041;48.300;16.352;2023-11-19T09:28:33;99664.25;;;21.98;nan
43312;BME280;30041;48.300;16.352;2023-11-19T09:30:59;99670.47;;;21.98;nan
43312;BME280;30041;48.300;16.352;2023-11-19T09:33:24;99671.28;;;21.99;nan
43312;BME280;30041;48.300;16.352;2023-11-19T09:35:50;99672.13;;;22.00;nan
43312;BME280;30041;48.300;16.352;2023-11-19T09:38:15;99673.97;;;21.99;nan
43312;BME280;30041;48.300;16.352;2023-11-19T09:40:40;99670.00;;;22.02;nan
43312;BME280;30041;48.300;16.352;2023-11-19T09:43:08;99669.44;;;21.88;nan
43312;BME280;30041;48.300;16.352;2023-11-19T09:45:48;99660.09;;;21.79;nan
43312;BME280;30041;48.300;16.352;2023-11-19T09:48:16;99665.97;;;21.75;nan
43312;BME280;30041;48.300;16.352;2023-11-19T09:50:41;99656.13;;;21.69;nan
43312;BME280;30041;48.300;16.352;2023-11-19T09:53:07;99655.66;;;21.72;nan
43312;BME280;30041;48.300;16.352;2023-11-19T09:55:33;99646.72;;;21.72;nan
43312;BME280;30041;48.300;16.352;2023-11-19T09:57:58;99644.63;;;21.74;nan
43312;BME280;30041;48.300;16.352;2023-11-19T10:00:27;99643.44;;;21.82;nan
43312;BME280;30041;48.300;16.352;2023-11-19T10:02:54;99650.81;;;21.86;nan
43312;BME280;30041;48.300;16.352;2023-11-19T10:05:20;99655.50;;;21.91;nan
43312;BME280;30041;48.300;16.352;2023-11-19T10:07:46;99642.47;;;21.88;nan
43312;BME280;30041;48.300;16.352;2023-11-19T10:10:12;99636.84;;;21.89;nan
43312;BME280;30041;48.300;16.352;2023-11-19T10:12:38;99632.94;;;21.97;nan
43312;BME280;30041;48.300;16.352;2023-11-19T10:15:04;99638.09;;;21.98;nan
43312;BME280;30041;48.300;16.352;2023-11-19T10:17:34;99637.63;;;22.02;nan
43312;BME280;30041;48.300;16.352;2023-11-19T10:19:59;99616.94;;;22.07;nan
43312;BME280;30041;48.300;16.352;2023-11-19T10:22:27;99630.41;;;22.07;nan
43312;BME280;30041;48.300;16.352;2023-11-19T10:24:52;99614.53;;;21.94;nan
43312;BME280;30041;48.300;16.352;2023-11-19T10:27:18;99612.91;;;21.93;nan
43312;BME280;30041;48.300;16.352;2023-11-19T10:29:47;99612.56;;;21.89;nan
43312;BME280;30041;48.300;16.352;2023-11-19T10:32:13;99611.66;;;21.84;nan
43312;BME280;30041;48.300;16.352;2023-11-19T10:34:38;99607.78;;;21.80;nan
43312;BME280;30041;48.300;16.352;2023-11-19T10:37:03;99607.78;;;21.80;nan
43312;BME280;30041;48.300;16.352;2023-11-19T10:39:52;99598.38;;;21.82;nan
43312;BME280;30041;48.300;16.352;2023-11-19T10:42:17;99588.66;;;21.81;nan
43312;BME280;30041;48.300;16.352;2023-11-19T10:44:43;99590.78;;;21.79;nan
43312;BME280;30041;48.300;16.352;2023-11-19T10:47:09;99582.72;;;21.67;nan
43312;BME280;30041;48.300;16.352;2023-11-19T10:49:35;99573.22;;;21.65;nan
43312;BME280;30041;48.300;16.352;2023-11-19T10:52:01;99570.97;;;21.73;nan
43312;BME280;30041;48.300;16.352;2023-11-19T10:54:26;99572.00;;;21.84;nan
43312;BME280;30041;48.300;16.352;2023-11-19T10:56:58;99567.56;;;21.78;nan
43312;BME280;30041;48.300;16.352;2023-11-19T10:59:26;99564.63;;;21.80;nan
43312;BME280;30041;48.300;16.352;2023-11-19T11:01:54;99559.22;;;21.80;nan
43312;BME280;30041;48.300;16.352;2023-11-19T11:04:24;99562.00;;;21.85;nan
43312;BME280;30041;48.300;16.352;2023-11-19T11:06:51;99558.72;;;21.83;nan
43312;BME280;30041;48.300;16.352;2023-11-19T11:09:16;99545.19;;;21.94;nan
43312;BME280;30041;48.300;16.352;2023-11-19T11:11:46;99538.66;;;21.90;nan
43312;BME280;30041;48.300;16.352;2023-11-19T11:14:12;99541.66;;;21.94;nan
43312;BME280;30041;48.300;16.352;2023-11-19T11:16:44;99546.47;;;21.92;nan
43312;BME280;30041;48.300;16.352;2023-11-19T11:19:16;99548.03;;;21.88;nan
43312;BME280;30041;48.300;16.352;2023-11-19T11:21:45;99545.47;;;21.81;nan
43312;BME280;30041;48.300;16.352;2023-11-19T11:32:52;99555.03;;;21.72;nan
43312;BME280;30041;48.300;16.352;2023-11-19T11:35:43;99546.13;;;21.71;nan
43312;BME280;30041;48.300;16.352;2023-11-19T11:38:11;99541.31;;;21.73;nan
43312;BME280;30041;48.300;16.352;2023-11-19T11:40:39;99538.03;;;21.71;nan
43312;BME280;30041;48.300;16.352;2023-11-19T11:43:58;99541.06;;;21.75;nan
43312;BME280;30041;48.300;16.352;2023-11-19T11:49:01;99543.19;;;21.73;nan
43312;BME280;30041;48.300;16.352;2023-11-19T11:59:36;99560.19;;;21.73;nan
43312;BME280;30041;48.300;16.352;2023-11-19T12:02:03;99545.41;;;21.76;nan
43312;BME280;30041;48.300;16.352;2023-11-19T12:04:28;99540.22;;;21.74;nan
43312;BME280;30041;48.300;16.352;2023-11-19T12:07:15;99540.50;;;21.73;nan
43312;BME280;30041;48.300;16.352;2023-11-19T12:09:42;99544.34;;;21.77;nan
43312;BME280;30041;48.300;16.352;2023-11-19T12:17:49;99524.53;;;21.71;nan
43312;BME280;30041;48.300;16.352;2023-11-19T12:20:16;99520.81;;;21.72;nan
43312;BME280;30041;48.300;16.352;2023-11-19T12:22:43;99521.03;;;21.71;nan
43312;BME280;30041;48.300;16.352;2023-11-19T12:25:12;99508.84;;;21.68;nan
43312;BME280;30041;48.300;16.352;2023-11-19T12:27:43;99514.25;;;21.68;nan
43312;BME280;30041;48.300;16.352;2023-11-19T12:30:09;99504.50;;;21.67;nan
43312;BME280;30041;48.300;16.352;2023-11-19T12:32:42;99507.78;;;21.69;nan
43312;BME280;30041;48.300;16.352;2023-11-19T12:35:11;99505.56;;;21.66;nan
43312;BME280;30041;48.300;16.352;2023-11-19T12:37:44;99501.81;;;21.67;nan
43312;BME280;30041;48.300;16.352;2023-11-19T12:40:23;99495.59;;;21.67;nan
43312;BME280;30041;48.300;16.352;2023-11-19T12:42:53;99500.75;;;21.68;nan
43312;BME280;30041;48.300;16.352;2023-11-19T12:45:18;99497.81;;;21.70;nan
43312;BME280;30041;48.300;16.352;2023-11-19T12:47:44;99502.06;;;21.66;nan
43312;BME280;30041;48.300;16.352;2023-11-19T12:50:10;99497.47;;;21.66;nan
43312;BME280;30041;48.300;16.352;2023-11-19T12:52:36;99496.41;;;21.67;nan
43312;BME280;30041;48.300;16.352;2023-11-19T12:55:05;99492.09;;;21.66;nan
43312;BME280;30041;48.300;16.352;2023-11-19T12:57:48;99496.91;;;21.64;nan
43312;BME280;30041;48.300;16.352;2023-11-19T13:00:24;99493.97;;;21.66;nan
43312;BME280;30041;48.300;16.352;2023-11-19T13:05:30;99481.53;;;21.65;nan
43312;BME280;30041;48.300;16.352;2023-11-19T13:08:09;99481.78;;;21.34;nan
43312;BME280;30041;48.300;16.352;2023-11-19T13:10:51;99486.00;;;20.78;nan
43312;BME280;30041;48.300;16.352;2023-11-19T13:13:17;99493.22;;;20.89;nan
43312;BME280;30041;48.300;16.352;2023-11-19T13:15:42;99491.13;;;20.91;nan
43312;BME280;30041;48.300;16.352;2023-11-19T13:18:08;99487.22;;;21.11;nan
43312;BME280;30041;48.300;16.352;2023-11-19T13:20:36;99474.88;;;21.27;nan
43312;BME280;30041;48.300;16.352;2023-11-19T13:23:03;99477.50;;;21.39;nan
43312;BME280;30041;48.300;16.352;2023-11-19T13:25:29;99472.84;;;21.46;nan
43312;BME280;30041;48.300;16.352;2023-11-19T13:27:55;99482.91;;;21.50;nan
43312;BME280;30041;48.300;16.352;2023-11-19T13:30:24;99484.28;;;21.53;nan
43312;BME280;30041;48.300;16.352;2023-11-19T13:32:50;99480.22;;;21.50;nan
43312;BME280;30041;48.300;16.352;2023-11-19T13:35:16;99484.53;;;21.51;nan